createdAt,value
2024-01-18T00:00:49.612Z,70.78
2024-01-18T00:01:52.062Z,70.80
2024-01-18T00:02:54.194Z,70.79
2024-01-18T00:03:57.138Z,70.80
2024-01-18T00:04:59.730Z,70.79
2024-01-18T00:06:02.378Z,70.75
2024-01-18T00:07:04.780Z,70.81
2024-01-18T00:08:06.861Z,70.78
2024-01-18T00:09:09.076Z,70.79
2024-01-18T00:10:13.271Z,70.74
2024-01-18T00:11:16.622Z,70.82
2024-01-18T00:12:19.062Z,70.81
2024-01-18T00:13:21.194Z,70.91
2024-01-18T00:14:23.176Z,71.00
2024-01-18T00:15:25.375Z,70.99
2024-01-18T00:16:28.357Z,70.97
2024-01-18T00:17:30.495Z,70.91
2024-01-18T00:18:32.961Z,70.82
2024-01-18T00:19:35.424Z,70.86
2024-01-18T00:20:38.116Z,70.95
2024-01-18T00:21:40.410Z,71.00
2024-01-18T00:22:42.761Z,71.08
2024-01-18T00:23:45.417Z,71.07
2024-01-18T00:24:47.747Z,70.99
2024-01-18T00:25:50.045Z,71.02
2024-01-18T00:26:52.469Z,71.02
2024-01-18T00:27:54.634Z,71.08
2024-01-18T00:28:56.976Z,71.07
2024-01-18T00:29:59.832Z,71.06
2024-01-18T00:31:02.109Z,71.06
2024-01-18T00:32:04.852Z,71.02
2024-01-18T00:33:07.431Z,71.01
2024-01-18T00:34:10.702Z,70.94
2024-01-18T00:35:13.170Z,70.87
2024-01-18T00:36:15.784Z,70.95
2024-01-18T00:37:18.388Z,70.96
2024-01-18T00:38:21.104Z,71.02
2024-01-18T00:39:23.318Z,71.07
2024-01-18T00:40:27.370Z,71.14
2024-01-18T00:41:32.731Z,71.24
2024-01-18T00:42:35.149Z,71.38
2024-01-18T00:43:37.672Z,71.55
2024-01-18T00:44:40.275Z,71.61
2024-01-18T00:45:44.069Z,71.76
2024-01-18T00:46:47.974Z,72.63
2024-01-18T00:47:50.180Z,73.12
2024-01-18T00:48:52.811Z,73.27
2024-01-18T00:49:55.149Z,73.11
2024-01-18T00:50:59.329Z,72.98
2024-01-18T00:52:01.804Z,73.04
2024-01-18T00:53:04.252Z,73.42
2024-01-18T00:54:06.755Z,73.62
2024-01-18T00:55:08.810Z,73.80
2024-01-18T00:56:11.871Z,74.01
2024-01-18T00:57:14.613Z,74.02
2024-01-18T00:58:18.380Z,74.36
2024-01-18T00:59:21.806Z,74.68
2024-01-18T01:00:24.865Z,75.07
2024-01-18T01:01:27.808Z,75.14
2024-01-18T01:02:31.032Z,75.29
2024-01-18T01:03:33.694Z,75.58
2024-01-18T01:04:36.015Z,75.56
2024-01-18T01:05:38.201Z,75.50
2024-01-18T01:06:42.761Z,75.48
2024-01-18T01:07:45.036Z,75.48
2024-01-18T01:08:47.571Z,76.93
2024-01-18T01:09:50.079Z,77.27
2024-01-18T01:10:52.974Z,77.46
2024-01-18T01:11:55.285Z,78.06
2024-01-18T01:12:57.408Z,78.31
2024-01-18T01:13:59.700Z,78.34
2024-01-18T01:15:02.693Z,78.50
2024-01-18T01:16:06.354Z,78.62
2024-01-18T01:17:08.802Z,78.73
2024-01-18T01:18:11.587Z,78.83
2024-01-18T01:19:14.378Z,79.11
2024-01-18T01:20:17.410Z,79.19
2024-01-18T01:21:19.664Z,79.41
2024-01-18T01:22:21.806Z,80.06
2024-01-18T01:23:24.592Z,80.39
2024-01-18T01:24:27.568Z,80.93
2024-01-18T01:25:30.125Z,81.19
2024-01-18T01:26:32.834Z,81.84
2024-01-18T01:27:35.199Z,82.06
2024-01-18T01:28:37.561Z,82.18
2024-01-18T01:29:39.873Z,82.04
2024-01-18T01:30:43.143Z,82.33
2024-01-18T01:31:45.433Z,82.32
2024-01-18T01:32:47.609Z,82.41
2024-01-18T01:33:49.781Z,82.44
2024-01-18T01:34:52.572Z,82.33
2024-01-18T01:35:54.974Z,82.29
2024-01-18T01:36:58.226Z,82.48
2024-01-18T01:38:00.524Z,82.30
2024-01-18T01:39:02.922Z,82.27
2024-01-18T01:40:07.259Z,82.32
2024-01-18T01:41:10.464Z,82.36
2024-01-18T01:42:12.870Z,82.51
2024-01-18T01:43:15.117Z,82.29
2024-01-18T01:44:18.378Z,82.30
2024-01-18T01:45:20.891Z,82.34
2024-01-18T01:46:26.174Z,82.35
2024-01-18T01:47:28.455Z,82.36
2024-01-18T01:48:31.373Z,82.37
2024-01-18T01:49:34.318Z,82.24
2024-01-18T01:50:37.788Z,82.08
2024-01-18T01:51:44.171Z,82.11
2024-01-18T01:52:47.650Z,82.04
2024-01-18T01:53:50.180Z,82.02
2024-01-18T01:54:52.446Z,82.04
2024-01-18T01:55:55.157Z,82.08
2024-01-18T01:57:01.458Z,82.11
2024-01-18T01:58:04.073Z,82.31
2024-01-18T01:59:09.957Z,82.43
2024-01-18T02:00:15.951Z,82.34
2024-01-18T02:01:19.060Z,82.50
2024-01-18T02:02:22.601Z,82.41
2024-01-18T02:03:25.184Z,82.37
2024-01-18T02:04:29.110Z,82.41
2024-01-18T02:05:31.663Z,82.24
2024-01-18T02:06:35.719Z,82.19
2024-01-18T02:07:38.724Z,82.12
2024-01-18T02:08:41.745Z,82.23
2024-01-18T02:09:44.896Z,82.28
2024-01-18T02:10:51.409Z,82.38
2024-01-18T02:11:54.331Z,82.45
2024-01-18T02:13:00.307Z,82.59
2024-01-18T02:14:06.410Z,82.68
2024-01-18T02:15:12.432Z,82.88
2024-01-18T02:16:19.446Z,82.88
2024-01-18T02:17:26.191Z,82.84
2024-01-18T02:18:31.559Z,82.82
2024-01-18T02:19:36.899Z,82.83
2024-01-18T02:20:49.996Z,82.89
2024-01-18T02:21:57.310Z,82.92
2024-01-18T02:23:07.404Z,83.36
2024-01-18T02:24:25.667Z,83.74
2024-01-18T02:25:42.892Z,83.90
2024-01-18T02:26:46.549Z,83.96
2024-01-18T02:27:58.142Z,83.98
2024-01-18T02:29:16.350Z,84.08
2024-01-18T02:30:20.516Z,84.13
2024-01-18T02:32:46.215Z,84.04
2024-01-18T02:33:52.492Z,84.18
2024-01-18T02:34:55.510Z,84.07
2024-01-18T02:36:00.628Z,84.09
2024-01-18T02:37:03.977Z,84.11
2024-01-18T02:38:10.307Z,84.14
2024-01-18T02:39:16.761Z,84.18
2024-01-18T02:40:24.715Z,84.17
2024-01-18T02:41:29.312Z,84.26
2024-01-18T02:42:35.034Z,84.36
2024-01-18T02:43:39.674Z,84.45
2024-01-18T02:44:44.990Z,84.47
2024-01-18T02:45:49.870Z,84.53
2024-01-18T02:48:18.241Z,84.59
2024-01-18T02:49:21.930Z,84.57
2024-01-18T02:50:26.269Z,84.55
2024-01-18T02:51:33.604Z,84.62
2024-01-18T02:52:38.314Z,84.61
2024-01-18T02:53:43.269Z,84.58
2024-01-18T02:54:47.906Z,84.67
2024-01-18T02:55:55.376Z,84.70
2024-01-18T02:57:00.577Z,84.67
2024-01-18T02:58:05.269Z,84.76
2024-01-18T02:59:15.390Z,84.90
2024-01-18T03:00:21.645Z,84.86
2024-01-18T03:01:25.991Z,84.97
2024-01-18T03:02:29.163Z,84.97
2024-01-18T03:03:32.769Z,85.08
2024-01-18T03:04:36.504Z,85.08
2024-01-18T03:05:39.917Z,85.15
2024-01-18T03:06:44.330Z,85.23
2024-01-18T03:07:47.058Z,85.22
2024-01-18T03:08:50.402Z,85.33
2024-01-18T03:09:55.622Z,85.38
2024-01-18T03:11:05.021Z,85.47
2024-01-18T03:12:11.174Z,85.49
2024-01-18T03:13:13.871Z,85.52
2024-01-18T03:14:16.982Z,85.53
2024-01-18T03:15:21.599Z,85.64
2024-01-18T03:16:28.049Z,85.72
2024-01-18T03:17:36.456Z,85.92
2024-01-18T03:18:42.415Z,85.86
2024-01-18T03:19:46.734Z,85.89
2024-01-18T03:20:51.296Z,85.98
2024-01-18T03:21:57.881Z,86.01
2024-01-18T03:23:03.711Z,86.24
2024-01-18T03:24:11.836Z,86.27
2024-01-18T03:25:17.337Z,86.42
2024-01-18T03:26:22.390Z,86.54
2024-01-18T03:27:28.151Z,86.46
2024-01-18T03:28:36.634Z,86.65
2024-01-18T03:29:41.340Z,86.79
2024-01-18T03:30:45.821Z,86.80
2024-01-18T03:31:52.160Z,86.91
2024-01-18T03:32:57.472Z,86.91
2024-01-18T03:34:03.465Z,86.98
2024-01-18T03:35:10.653Z,87.00
2024-01-18T03:36:22.628Z,86.97
2024-01-18T03:37:29.841Z,87.04
2024-01-18T03:40:07.545Z,87.08
2024-01-18T10:06:55.277Z,89.17
2024-01-18T10:19:44.162Z,88.64
2024-01-18T10:20:49.049Z,88.60
2024-01-18T10:21:51.555Z,88.56
2024-01-18T10:22:56.252Z,88.46
2024-01-18T10:24:04.187Z,88.42
2024-01-18T10:25:12.802Z,88.37
2024-01-18T10:26:18.045Z,88.40
2024-01-18T10:28:49.976Z,88.36
2024-01-18T10:30:01.447Z,88.27
2024-01-18T10:32:49.983Z,88.16
2024-01-18T10:34:10.291Z,88.00
2024-01-18T10:35:20.922Z,87.97
2024-01-18T10:36:32.256Z,87.91
2024-01-18T10:40:46.190Z,87.87
2024-01-18T10:43:33.518Z,87.73
2024-01-18T10:44:45.998Z,87.66
2024-01-18T10:46:05.618Z,87.53
2024-01-18T10:47:15.886Z,87.63
2024-01-18T10:48:33.224Z,87.52
2024-01-18T10:49:45.667Z,87.40
2024-01-18T10:50:58.108Z,87.42
2024-01-18T10:52:06.860Z,87.37
2024-01-18T10:53:20.632Z,87.30
2024-01-18T10:54:32.486Z,87.30
2024-01-18T10:55:33.000Z,87.27
2024-01-18T10:56:36.601Z,87.26
2024-01-18T10:57:40.011Z,87.24
2024-01-18T10:58:44.209Z,87.19
2024-01-18T10:59:54.333Z,87.23
2024-01-18T11:01:04.506Z,87.25
2024-01-18T11:02:12.711Z,87.19
2024-01-18T11:03:20.489Z,87.17
2024-01-18T11:06:02.505Z,87.21
2024-01-18T11:07:11.383Z,87.19
2024-01-18T11:08:15.179Z,87.14
2024-01-18T11:09:20.858Z,87.15
2024-01-18T11:10:24.863Z,87.21
2024-01-18T11:12:46.285Z,87.31
2024-01-18T11:13:50.568Z,87.28
2024-01-18T11:14:53.777Z,87.30
2024-01-18T11:15:56.769Z,87.28
2024-01-18T11:17:15.039Z,87.32
2024-01-18T11:18:17.919Z,87.29
2024-01-18T11:21:03.454Z,87.15
2024-01-18T11:22:08.697Z,87.17
2024-01-18T11:23:11.340Z,87.16
2024-01-18T11:24:15.040Z,87.18
2024-01-18T11:25:22.617Z,87.10
2024-01-18T11:26:26.445Z,87.13
2024-01-18T11:27:28.933Z,87.15
2024-01-18T11:28:32.180Z,87.17
2024-01-18T11:29:35.880Z,87.12
2024-01-18T11:30:39.151Z,87.15
2024-01-18T11:31:49.332Z,87.12
2024-01-18T11:32:54.364Z,87.05
2024-01-18T11:33:56.957Z,87.04
2024-01-18T11:36:28.474Z,87.04
2024-01-18T11:37:31.040Z,87.13
2024-01-18T11:38:37.552Z,87.16
2024-01-18T11:39:50.065Z,87.19
2024-01-18T11:41:04.774Z,87.17
2024-01-18T11:43:21.497Z,87.07
2024-01-18T11:44:29.157Z,87.02
2024-01-18T11:45:32.301Z,87.05
2024-01-18T11:46:39.102Z,87.04
2024-01-18T11:48:04.270Z,87.04
2024-01-18T11:49:17.381Z,87.12
2024-01-18T11:52:01.811Z,87.05
2024-01-18T11:53:15.385Z,87.10
2024-01-18T11:54:20.172Z,87.06
2024-01-18T11:55:30.238Z,87.10
2024-01-18T11:56:41.743Z,87.04
2024-01-18T11:57:48.233Z,86.95
2024-01-18T11:58:58.219Z,87.01
2024-01-18T12:00:10.457Z,86.96
2024-01-18T12:05:51.527Z,86.89
2024-01-18T12:06:55.103Z,86.88
2024-01-18T12:07:57.883Z,86.91
2024-01-18T12:09:00.416Z,86.92
2024-01-18T12:10:04.389Z,86.96
2024-01-18T12:11:08.087Z,86.92
2024-01-18T12:12:11.243Z,86.96
2024-01-18T12:13:14.567Z,86.96
2024-01-18T12:14:17.611Z,87.01
2024-01-18T12:15:20.821Z,87.04
2024-01-18T12:16:24.691Z,86.99
2024-01-18T12:17:28.019Z,86.89
2024-01-18T12:18:41.133Z,86.95
2024-01-18T12:19:46.600Z,86.96
2024-01-18T12:20:50.408Z,86.99
2024-01-18T12:21:53.440Z,86.96
2024-01-18T12:22:56.021Z,86.93
2024-01-18T12:23:58.917Z,86.88
2024-01-18T12:25:04.414Z,86.81
2024-01-18T12:26:06.194Z,86.78
2024-01-18T12:27:09.367Z,86.75
2024-01-18T12:28:11.892Z,86.76
2024-01-18T12:29:14.590Z,86.78
2024-01-18T12:30:18.210Z,86.76
2024-01-18T12:31:24.864Z,86.80
2024-01-18T12:32:28.432Z,86.88
2024-01-18T12:33:35.366Z,86.96
2024-01-18T12:34:39.324Z,87.04
2024-01-18T12:35:42.210Z,86.87
2024-01-18T12:36:45.752Z,86.84
2024-01-18T12:37:50.515Z,86.80
2024-01-18T12:38:53.317Z,86.79
2024-01-18T12:39:55.942Z,86.74
2024-01-18T12:40:59.327Z,86.87
2024-01-18T12:42:02.424Z,86.83
2024-01-18T12:43:05.114Z,86.77
2024-01-18T12:44:09.637Z,86.83
2024-01-18T12:45:12.219Z,86.77
2024-01-18T12:46:16.038Z,86.74
2024-01-18T12:47:19.125Z,86.70
2024-01-18T12:48:23.440Z,86.68
2024-01-18T12:49:26.524Z,86.65
2024-01-18T12:50:30.658Z,86.68
2024-01-18T12:51:34.947Z,86.82
2024-01-18T12:52:38.921Z,86.82
2024-01-18T12:53:42.058Z,86.81
2024-01-18T12:54:45.125Z,86.81
2024-01-18T12:55:47.732Z,86.91
2024-01-18T12:57:00.426Z,87.00
2024-01-18T12:58:05.763Z,86.88
2024-01-18T13:00:26.495Z,86.83
2024-01-18T13:01:33.802Z,86.89
2024-01-18T13:02:37.110Z,86.92
2024-01-18T13:03:39.761Z,86.87
2024-01-18T13:04:42.391Z,86.86
2024-01-18T13:05:46.358Z,86.92
2024-01-18T13:06:57.471Z,86.92
2024-01-18T13:07:59.049Z,86.95
2024-01-18T13:09:04.033Z,86.86
2024-01-18T13:10:07.438Z,86.82
2024-01-18T13:11:10.188Z,86.85
2024-01-18T13:12:13.624Z,86.77
2024-01-18T13:13:16.172Z,86.72
2024-01-18T13:14:18.742Z,86.65
2024-01-18T13:15:23.950Z,86.63
2024-01-18T13:16:30.060Z,86.65
2024-01-18T13:17:32.720Z,86.64
2024-01-18T13:18:36.310Z,86.62
2024-01-18T13:19:40.104Z,86.59
2024-01-18T13:20:45.653Z,86.55
2024-01-18T13:21:49.121Z,86.58
2024-01-18T13:22:51.803Z,86.56
2024-01-18T13:23:54.203Z,86.49
2024-01-18T13:24:58.100Z,86.56
2024-01-18T13:26:01.352Z,86.53
2024-01-18T13:27:04.723Z,86.53
2024-01-18T13:28:08.537Z,86.54
2024-01-18T13:29:11.299Z,86.52
2024-01-18T13:30:15.495Z,86.60
2024-01-18T13:31:18.859Z,86.73
2024-01-18T13:32:21.395Z,86.82
2024-01-18T13:33:24.076Z,86.83
2024-01-18T13:34:27.364Z,86.80
2024-01-18T13:35:30.492Z,86.78
2024-01-18T13:36:33.926Z,86.79
2024-01-18T13:37:37.815Z,86.72
2024-01-18T13:38:40.458Z,86.70
2024-01-18T13:39:44.535Z,86.78
2024-01-18T13:40:47.836Z,86.85
2024-01-18T13:41:50.548Z,86.92
2024-01-18T13:42:53.398Z,86.93
2024-01-18T13:43:55.954Z,86.96
2024-01-18T13:44:58.367Z,86.98
2024-01-18T13:46:02.079Z,87.02
2024-01-18T13:47:04.976Z,86.98
2024-01-18T13:48:07.761Z,86.96
2024-01-18T13:49:11.511Z,87.09
2024-01-18T13:50:16.146Z,87.11
2024-01-18T13:51:18.904Z,87.11
2024-01-18T13:52:22.319Z,87.10
2024-01-18T13:53:25.692Z,87.18
2024-01-18T13:54:30.314Z,87.26
2024-01-18T13:55:33.525Z,87.22
2024-01-18T13:56:36.204Z,87.29
2024-01-18T13:57:38.700Z,87.30
2024-01-18T13:58:41.591Z,87.22
2024-01-18T13:59:44.201Z,87.22
2024-01-18T14:00:47.590Z,87.18
2024-01-18T14:01:50.330Z,87.19
2024-01-18T14:02:52.892Z,87.27
2024-01-18T14:03:56.242Z,87.31
2024-01-18T14:05:00.064Z,87.37
2024-01-18T14:06:03.122Z,87.44
2024-01-18T14:07:05.794Z,87.46
2024-01-18T14:08:11.127Z,87.49
2024-01-18T14:09:14.543Z,87.53
2024-01-18T14:10:18.398Z,87.50
2024-01-18T14:11:21.396Z,87.48
2024-01-18T14:12:24.121Z,87.42
2024-01-18T14:13:27.265Z,87.46
2024-01-18T14:14:29.883Z,87.38
2024-01-18T14:15:33.584Z,87.30
2024-01-18T14:16:36.639Z,87.30
2024-01-18T14:17:39.202Z,87.41
2024-01-18T14:18:43.050Z,87.40
2024-01-18T14:19:46.512Z,87.48
2024-01-18T14:20:50.811Z,87.44
2024-01-18T14:21:53.648Z,87.38
2024-01-18T14:22:56.953Z,87.39
2024-01-18T14:23:59.578Z,87.43
2024-01-18T14:25:02.562Z,87.44
2024-01-18T14:26:06.416Z,87.49
2024-01-18T14:27:10.032Z,87.51
2024-01-18T14:28:13.699Z,87.50
2024-01-18T14:29:16.851Z,87.49
2024-01-18T14:30:20.893Z,87.47
2024-01-18T14:31:24.489Z,87.47
2024-01-18T14:32:29.519Z,87.55
2024-01-18T14:33:33.205Z,87.63
2024-01-18T14:34:36.436Z,87.68
2024-01-18T14:35:39.076Z,87.74
2024-01-18T14:36:42.443Z,87.74
2024-01-18T14:37:45.068Z,87.77
2024-01-18T14:38:48.283Z,87.79
2024-01-18T14:39:50.958Z,87.72
2024-01-18T14:40:54.185Z,87.74
2024-01-18T14:41:56.586Z,87.75
2024-01-18T14:43:01.699Z,87.78
2024-01-18T14:44:04.492Z,87.69
2024-01-18T14:45:08.085Z,87.69
2024-01-18T14:46:12.744Z,87.62
2024-01-18T14:47:23.726Z,87.58
2024-01-18T14:48:27.492Z,87.62
2024-01-18T14:49:31.578Z,87.50
2024-01-18T14:50:35.023Z,87.55
2024-01-18T14:51:39.054Z,87.53
2024-01-18T14:52:44.411Z,87.62
2024-01-18T14:53:47.497Z,87.57
2024-01-18T14:54:51.785Z,87.50
2024-01-18T14:55:55.768Z,87.56
2024-01-18T14:56:59.453Z,87.51
2024-01-18T14:58:02.072Z,87.53
2024-01-18T14:59:06.264Z,87.43
2024-01-18T15:00:11.115Z,87.26
2024-01-18T15:01:15.227Z,87.28
2024-01-18T15:02:18.945Z,87.24
2024-01-18T15:03:22.920Z,87.21
2024-01-18T15:04:25.546Z,87.24
2024-01-18T15:05:28.570Z,87.27
2024-01-18T15:06:32.383Z,87.26
2024-01-18T15:07:35.857Z,87.26
2024-01-18T15:08:39.424Z,87.19
2024-01-18T15:09:42.932Z,87.23
2024-01-18T15:10:46.197Z,87.15
2024-01-18T15:11:48.803Z,87.11
2024-01-18T15:12:51.735Z,87.07
2024-01-18T15:13:57.816Z,87.01
2024-01-18T15:15:00.378Z,86.99
2024-01-18T15:16:06.334Z,86.91
2024-01-18T15:17:09.515Z,86.99
2024-01-18T15:18:13.254Z,86.93
2024-01-18T15:19:36.775Z,86.88
2024-01-18T15:22:28.646Z,86.96
2024-01-18T15:23:42.748Z,86.95
2024-01-18T15:24:57.552Z,87.00
2024-01-18T15:26:20.210Z,87.02
2024-01-18T15:27:22.843Z,87.18
2024-01-18T15:28:29.034Z,87.16
2024-01-18T15:29:31.704Z,87.24
2024-01-18T15:30:42.541Z,87.28
2024-01-18T15:31:49.536Z,87.20
2024-01-18T15:32:52.780Z,87.17
2024-01-18T15:33:59.238Z,87.30
2024-01-18T15:35:02.102Z,87.37
2024-01-18T15:36:08.824Z,87.32
2024-01-18T15:37:12.522Z,87.36
2024-01-18T15:38:19.752Z,87.31
2024-01-18T15:39:23.527Z,87.37
2024-01-18T15:40:28.168Z,87.49
2024-01-18T15:41:31.252Z,87.54
2024-01-18T15:42:34.661Z,87.49
2024-01-18T15:43:39.554Z,87.46
2024-01-18T15:44:43.502Z,87.46
2024-01-18T15:45:46.728Z,87.52
2024-01-18T15:46:50.065Z,87.55
2024-01-18T15:53:13.061Z,87.33
2024-01-18T15:54:16.237Z,87.34
2024-01-18T15:55:18.701Z,87.38
2024-01-18T15:56:22.761Z,87.47
2024-01-18T15:58:38.196Z,87.48
2024-01-18T15:59:49.139Z,87.55
2024-01-18T16:00:59.628Z,87.68
2024-01-18T16:02:03.616Z,87.64
2024-01-18T16:10:28.694Z,87.30
2024-01-18T16:13:59.105Z,87.24
2024-01-18T16:15:08.537Z,87.32
2024-01-18T16:16:14.867Z,87.30
2024-01-18T16:17:24.831Z,87.31
2024-01-18T16:18:27.401Z,87.27
2024-01-18T16:19:32.465Z,87.19
2024-01-18T16:20:35.354Z,87.15
2024-01-18T16:21:45.789Z,87.14
2024-01-18T16:22:49.257Z,87.15
2024-01-18T16:23:51.903Z,87.07
2024-01-18T16:24:54.509Z,87.18
2024-01-18T16:25:56.766Z,87.25
2024-01-18T16:29:59.331Z,87.32
2024-01-18T16:31:02.388Z,87.39
2024-01-18T16:35:20.399Z,87.34
2024-01-18T16:39:52.541Z,87.47
2024-01-18T16:41:06.450Z,87.46
2024-01-18T16:45:33.595Z,87.60
2024-01-18T16:46:41.497Z,87.60
2024-01-18T16:52:22.858Z,87.86
2024-01-18T16:55:09.491Z,87.77
2024-01-18T16:56:23.000Z,87.90
2024-01-18T16:57:32.248Z,87.90
2024-01-18T16:58:40.129Z,87.96
2024-01-18T16:59:45.570Z,88.05
2024-01-18T17:00:48.661Z,88.00
2024-01-18T17:01:57.569Z,88.05
2024-01-18T17:03:09.465Z,88.06
2024-01-18T17:04:20.114Z,88.08
2024-01-18T17:08:54.664Z,88.11
2024-01-18T17:10:05.691Z,88.02
2024-01-18T17:21:46.548Z,87.90
2024-01-18T17:22:55.996Z,87.90
2024-01-18T17:29:17.306Z,87.85
2024-01-18T17:32:00.525Z,87.70
2024-01-18T18:15:52.943Z,87.77
2024-01-18T18:16:55.625Z,87.89
2024-01-18T18:17:58.923Z,87.98
2024-01-18T18:19:02.264Z,88.08
2024-01-18T18:20:08.424Z,88.13
2024-01-18T18:21:12.691Z,88.15
2024-01-18T18:22:16.683Z,88.25
2024-01-18T18:23:19.309Z,88.29
2024-01-18T18:24:22.970Z,88.31
2024-01-18T18:25:26.164Z,88.42
2024-01-18T18:26:29.454Z,88.42
2024-01-18T18:27:32.711Z,88.44
2024-01-18T18:28:35.288Z,88.45
2024-01-18T18:29:37.878Z,88.50
2024-01-18T18:30:52.223Z,88.50
2024-01-18T18:31:48.032Z,88.49
2024-01-18T18:32:51.578Z,88.49
2024-01-18T18:33:56.584Z,88.38
2024-01-18T18:35:01.276Z,88.38
2024-01-18T18:36:04.627Z,88.46
2024-01-18T18:37:09.157Z,88.49
2024-01-18T18:38:18.552Z,88.49
2024-01-18T18:39:17.815Z,88.56
2024-01-18T18:40:20.921Z,88.66
2024-01-18T18:41:23.958Z,88.75
2024-01-18T18:42:26.540Z,88.77
2024-01-18T18:43:30.421Z,88.74
2024-01-18T18:44:33.544Z,88.83
2024-01-18T18:45:37.325Z,88.87
2024-01-18T18:46:41.143Z,88.92
2024-01-18T18:47:43.731Z,88.97
2024-01-18T18:48:46.878Z,89.16
2024-01-18T18:49:50.590Z,89.15
2024-01-18T18:50:54.300Z,89.10
2024-01-18T18:51:57.463Z,88.90
2024-01-18T18:53:01.326Z,88.84
2024-01-18T18:54:03.993Z,88.82
2024-01-18T18:55:07.424Z,88.91
2024-01-18T18:56:10.125Z,88.95
2024-01-18T18:57:13.665Z,88.92
2024-01-18T18:58:21.010Z,88.92
2024-01-18T18:59:23.673Z,88.94
2024-01-18T19:00:27.103Z,88.96
2024-01-18T19:01:30.216Z,88.96
2024-01-18T19:02:34.139Z,89.03
2024-01-18T19:03:36.884Z,89.03
2024-01-18T19:04:39.378Z,89.11
2024-01-18T19:05:42.047Z,89.16
2024-01-18T19:06:45.367Z,89.15
2024-01-18T19:07:48.017Z,89.11
2024-01-18T19:08:51.912Z,89.13
2024-01-18T19:09:55.748Z,89.14
2024-01-18T19:11:00.925Z,89.06
2024-01-18T19:12:03.555Z,89.09
2024-01-18T19:13:06.100Z,89.11
2024-01-18T19:14:13.584Z,89.07
2024-01-18T19:15:16.635Z,89.01
2024-01-18T19:16:21.718Z,88.98
2024-01-18T19:17:24.395Z,88.97
2024-01-18T19:18:28.360Z,88.94
2024-01-18T19:19:31.039Z,88.89
2024-01-18T19:20:33.625Z,88.87
2024-01-18T19:21:37.382Z,88.88
2024-01-18T19:22:39.951Z,88.85
2024-01-18T19:23:43.106Z,88.82
2024-01-18T19:24:45.791Z,88.78
2024-01-18T19:25:48.312Z,88.77
2024-01-18T19:26:50.913Z,88.77
2024-01-18T19:27:54.669Z,88.67
2024-01-18T19:28:57.324Z,88.63
2024-01-18T19:29:59.941Z,88.69
2024-01-18T19:31:03.504Z,88.69
2024-01-18T19:32:06.936Z,88.75
2024-01-18T19:33:09.521Z,88.75
2024-01-18T19:34:12.135Z,88.74
2024-01-18T19:35:14.739Z,88.70
2024-01-18T19:36:18.371Z,88.66
2024-01-18T19:37:22.248Z,88.61
2024-01-18T19:38:25.460Z,88.74
2024-01-18T19:39:32.620Z,88.78
2024-01-18T19:40:33.650Z,88.95
2024-01-18T19:41:36.064Z,88.98
2024-01-18T19:42:39.448Z,88.96
2024-01-18T19:43:43.096Z,88.93
2024-01-18T19:44:46.836Z,88.87
2024-01-18T19:45:50.517Z,88.85
2024-01-18T19:46:53.242Z,88.82
2024-01-18T19:47:55.945Z,88.75
2024-01-18T19:50:10.360Z,88.80
2024-01-18T19:51:13.413Z,88.93
2024-01-18T19:52:16.558Z,88.94
2024-01-18T19:53:20.162Z,88.94
2024-01-18T19:54:22.782Z,88.93
2024-01-18T19:55:25.352Z,88.92
2024-01-18T19:56:28.699Z,88.86
2024-01-18T19:57:32.205Z,88.82
2024-01-18T19:58:34.653Z,88.85
2024-01-18T19:59:37.899Z,88.78
2024-01-18T20:00:40.609Z,88.75
2024-01-18T20:01:43.229Z,88.76
2024-01-18T20:02:46.526Z,88.75
2024-01-18T20:03:49.222Z,88.76
2024-01-18T20:04:51.701Z,88.74
2024-01-18T20:05:55.149Z,88.66
2024-01-18T20:06:59.369Z,88.62
2024-01-18T20:08:02.616Z,88.54
2024-01-18T20:09:05.718Z,88.50
2024-01-18T20:10:11.348Z,88.42
2024-01-18T20:11:14.484Z,88.40
2024-01-18T20:12:18.268Z,88.20
2024-01-18T20:13:21.352Z,88.13
2024-01-18T20:14:25.050Z,88.13
2024-01-18T20:15:28.580Z,88.03
2024-01-18T20:16:31.382Z,87.99
2024-01-18T20:17:35.196Z,87.97
2024-01-18T20:18:38.003Z,87.95
2024-01-18T20:19:41.785Z,88.00
2024-01-18T20:20:44.612Z,88.00
2024-01-18T20:21:47.787Z,87.96
2024-01-18T20:22:50.572Z,87.91
2024-01-18T20:23:53.847Z,87.81
2024-01-18T20:24:57.285Z,87.77
2024-01-18T20:26:02.441Z,87.83
2024-01-18T20:27:05.800Z,87.93
2024-01-18T20:28:08.601Z,87.90
2024-01-18T20:29:11.776Z,87.82
2024-01-18T20:30:15.489Z,87.84
2024-01-18T20:31:18.237Z,87.80
2024-01-18T20:32:20.949Z,87.73
2024-01-18T20:33:23.802Z,87.74
2024-01-18T20:34:27.682Z,87.68
2024-01-18T20:35:30.570Z,87.68
2024-01-18T20:36:38.895Z,87.73
2024-01-18T20:37:42.811Z,87.71
2024-01-18T20:38:45.359Z,87.68
2024-01-18T20:39:48.585Z,87.64
2024-01-18T20:40:53.458Z,87.63
2024-01-18T20:41:55.990Z,87.62
2024-01-18T20:42:59.049Z,87.66
2024-01-18T20:44:01.679Z,87.67
2024-01-18T20:45:06.023Z,87.66
2024-01-18T20:46:09.957Z,87.60
2024-01-18T20:47:12.681Z,87.60
2024-01-18T20:48:15.891Z,87.67
2024-01-18T20:49:19.621Z,87.64
2024-01-18T20:50:23.261Z,87.69
2024-01-18T20:51:26.051Z,87.70
2024-01-18T20:52:30.593Z,87.68
2024-01-18T20:53:33.854Z,87.65
2024-01-18T20:54:37.434Z,87.63
2024-01-18T20:55:41.889Z,87.69
2024-01-18T20:56:44.668Z,87.75
2024-01-18T20:57:47.243Z,87.74
2024-01-18T20:58:50.931Z,87.76
2024-01-18T20:59:53.995Z,87.79
2024-01-18T21:00:57.061Z,87.84
2024-01-18T21:01:59.930Z,87.84
2024-01-18T21:03:03.645Z,87.76
2024-01-18T21:04:06.260Z,87.74
2024-01-18T21:05:09.695Z,87.75
2024-01-18T21:06:12.704Z,87.77
2024-01-18T21:07:15.364Z,87.82
2024-01-18T21:08:18.590Z,87.79
2024-01-18T21:09:21.778Z,87.83
2024-01-18T21:10:25.668Z,87.83
2024-01-18T21:11:29.332Z,87.82
2024-01-18T21:12:31.814Z,87.86
2024-01-18T21:13:34.784Z,87.85
2024-01-18T21:14:37.439Z,87.87
2024-01-18T21:15:42.439Z,87.91
2024-01-18T21:16:46.832Z,87.90
2024-01-18T21:17:49.381Z,87.84
2024-01-18T21:18:52.515Z,87.76
2024-01-18T21:19:55.507Z,87.72
2024-01-18T21:20:58.111Z,87.62
2024-01-18T21:22:01.744Z,87.62
2024-01-18T21:23:04.818Z,87.68
2024-01-18T21:24:08.500Z,87.66
2024-01-18T21:25:11.766Z,87.68
2024-01-18T21:26:14.462Z,87.72
2024-01-18T21:27:18.480Z,87.75
2024-01-18T21:28:21.073Z,87.79
2024-01-18T21:29:25.713Z,87.77
2024-01-18T21:30:29.298Z,87.81
2024-01-18T21:31:35.599Z,87.72
2024-01-18T21:32:38.281Z,87.69
2024-01-18T21:33:43.284Z,87.70
2024-01-18T21:34:46.333Z,87.62
2024-01-18T21:35:48.963Z,87.58
2024-01-18T21:36:51.645Z,87.61
2024-01-18T21:37:55.232Z,87.65
2024-01-18T21:38:58.887Z,87.67
2024-01-18T21:40:03.260Z,87.61
2024-01-18T21:41:06.460Z,87.68
2024-01-18T21:42:10.268Z,87.63
2024-01-18T21:43:15.293Z,87.58
2024-01-18T21:44:18.953Z,87.47
2024-01-18T21:45:23.637Z,87.43
2024-01-18T21:46:28.112Z,87.42
2024-01-18T21:47:33.366Z,87.41
2024-01-18T21:48:37.181Z,87.33
2024-01-18T21:49:40.846Z,87.41
2024-01-18T21:50:45.590Z,87.46
2024-01-18T21:51:51.084Z,87.36
2024-01-18T21:52:54.770Z,87.32
2024-01-18T21:53:57.581Z,87.30
2024-01-18T21:55:02.148Z,87.35
2024-01-18T21:56:06.562Z,87.36
2024-01-18T21:57:11.995Z,87.32
2024-01-18T21:58:14.995Z,87.30
2024-01-18T21:59:24.953Z,87.31
2024-01-18T22:00:23.929Z,87.27
2024-01-18T22:01:28.491Z,87.27
2024-01-18T22:02:32.074Z,87.16
2024-01-18T22:03:35.923Z,87.09
2024-01-18T22:04:39.102Z,87.07
2024-01-18T22:05:42.951Z,87.02
2024-01-18T22:06:46.411Z,87.02
2024-01-18T22:07:50.801Z,87.01
2024-01-18T22:08:54.093Z,87.00
2024-01-18T22:09:56.964Z,86.98
2024-01-18T22:11:00.512Z,86.94
2024-01-18T22:12:06.912Z,86.89
2024-01-18T22:13:09.702Z,86.88
2024-01-18T22:14:12.875Z,86.91
2024-01-18T22:15:15.804Z,86.89
2024-01-18T22:16:20.694Z,86.97
2024-01-18T22:17:24.396Z,86.95
2024-01-18T22:18:28.089Z,86.96
2024-01-18T22:19:42.895Z,86.96
2024-01-18T22:20:38.132Z,86.97
2024-01-18T22:21:42.114Z,86.96
2024-01-18T22:22:45.064Z,86.90
2024-01-18T22:23:48.272Z,86.92
2024-01-18T22:24:51.468Z,86.99
2024-01-18T22:25:55.500Z,86.98
2024-01-18T22:28:16.201Z,87.15
2024-01-18T22:29:19.375Z,87.29
2024-01-18T22:30:22.004Z,87.39
2024-01-18T22:31:25.479Z,87.34
2024-01-18T22:32:28.144Z,87.32
2024-01-18T22:33:30.733Z,87.33
2024-01-18T22:34:33.434Z,87.31
2024-01-18T22:35:36.604Z,87.23
2024-01-18T22:36:39.702Z,87.13
2024-01-18T22:37:42.270Z,87.06